createdAt,value
2022-10-28T00:00:35.415Z,76.90
2022-10-28T00:04:38.216Z,77.10
2022-10-28T00:08:41.598Z,77.20
2022-10-28T00:12:44.369Z,77.20
2022-10-28T00:16:47.150Z,77.10
2022-10-28T00:20:49.885Z,77.30
2022-10-28T00:24:53.652Z,77.20
2022-10-28T00:28:59.997Z,77.10
2022-10-28T00:33:02.926Z,77.30
2022-10-28T00:37:05.658Z,77.10
2022-10-28T00:41:10.065Z,77.20
2022-10-28T00:45:12.992Z,77.50
2022-10-28T00:49:22.277Z,77.80
2022-10-28T00:53:28.943Z,78.10
2022-10-28T00:57:36.067Z,78.00
2022-10-28T01:01:38.937Z,78.10
2022-10-28T01:05:45.072Z,78.00
2022-10-28T01:09:48.222Z,78.10
2022-10-28T01:14:07.604Z,78.20
2022-10-28T01:18:37.078Z,78.70
2022-10-28T01:22:47.192Z,78.30
2022-10-28T01:26:52.859Z,78.30
2022-10-28T01:31:14.682Z,78.50
2022-10-28T01:35:36.080Z,78.70
2022-10-28T01:39:59.510Z,78.70
2022-10-28T01:44:14.370Z,78.60
2022-10-28T01:48:21.346Z,78.50
2022-10-28T01:52:27.807Z,78.50
2022-10-28T01:56:37.962Z,78.70
2022-10-28T02:00:43.158Z,78.60
2022-10-28T02:04:48.005Z,78.50
2022-10-28T02:08:56.579Z,78.80
2022-10-28T02:13:02.890Z,79.10
2022-10-28T02:17:21.229Z,79.20
2022-10-28T02:21:48.184Z,79.20
2022-10-28T02:26:02.733Z,79.10
2022-10-28T02:30:17.395Z,79.10
2022-10-28T02:34:27.626Z,79.20
2022-10-28T02:38:49.043Z,79.10
2022-10-28T02:42:59.459Z,79.30
2022-10-28T02:47:09.869Z,79.50
2022-10-28T02:51:29.039Z,79.50
2022-10-28T02:55:40.128Z,79.70
2022-10-28T02:59:47.773Z,79.50
2022-10-28T03:03:55.038Z,79.60
2022-10-28T03:07:58.192Z,79.80
2022-10-28T03:12:01.140Z,79.70
2022-10-28T03:16:04.124Z,79.50
2022-10-28T03:20:07.552Z,79.50
2022-10-28T03:24:10.319Z,79.30
2022-10-28T03:28:16.443Z,79.30
2022-10-28T03:32:19.388Z,79.50
2022-10-28T03:36:22.427Z,79.40
2022-10-28T03:40:25.345Z,79.30
2022-10-28T03:44:30.711Z,79.50
2022-10-28T03:48:33.676Z,79.50
2022-10-28T03:52:36.568Z,79.50
2022-10-28T03:56:43.786Z,79.60
2022-10-28T04:00:52.052Z,79.50
2022-10-28T04:04:55.325Z,79.50
2022-10-28T04:08:58.301Z,79.30
2022-10-28T04:13:02.294Z,79.30
2022-10-28T04:17:05.180Z,79.60
2022-10-28T04:21:07.977Z,79.90
2022-10-28T04:25:10.984Z,79.80
2022-10-28T04:29:14.573Z,79.60
2022-10-28T04:33:18.002Z,79.90
2022-10-28T04:37:20.824Z,79.90
2022-10-28T04:41:23.625Z,79.80
2022-10-28T04:45:28.921Z,79.90
2022-10-28T04:49:35.418Z,79.90
2022-10-28T04:53:41.220Z,79.90
2022-10-28T04:57:44.382Z,80.10
2022-10-28T05:01:47.337Z,80.10
2022-10-28T05:05:50.232Z,80.00
2022-10-28T05:09:53.003Z,80.10
2022-10-28T05:13:55.967Z,80.10
2022-10-28T05:17:58.965Z,80.10
2022-10-28T05:22:01.709Z,80.10
2022-10-28T05:26:04.783Z,80.20
2022-10-28T05:30:08.308Z,80.20
2022-10-28T05:34:14.286Z,80.20
2022-10-28T05:38:17.225Z,80.10
2022-10-28T05:42:20.055Z,80.30
2022-10-28T05:46:22.981Z,80.40
2022-10-28T05:50:25.868Z,80.50
2022-10-28T05:54:28.680Z,80.50
2022-10-28T05:58:34.617Z,80.40
2022-10-28T06:02:37.520Z,80.60
2022-10-28T06:06:40.554Z,80.60
2022-10-28T06:10:49.530Z,80.70
2022-10-28T06:14:52.355Z,80.70
2022-10-28T06:18:55.877Z,80.60
2022-10-28T06:22:58.924Z,80.60
2022-10-28T06:27:02.130Z,80.60
2022-10-28T06:31:07.680Z,80.40
2022-10-28T06:35:10.691Z,80.40
2022-10-28T06:39:13.600Z,80.40
2022-10-28T06:43:16.406Z,80.40
2022-10-28T06:47:21.201Z,80.50
2022-10-28T06:51:24.393Z,80.40
2022-10-28T06:55:27.938Z,80.40
2022-10-28T06:59:30.694Z,80.50
2022-10-28T07:03:33.457Z,80.50
2022-10-28T07:07:39.449Z,80.50
2022-10-28T07:11:45.472Z,80.50
2022-10-28T07:15:56.307Z,80.20
2022-10-28T07:19:59.138Z,80.40
2022-10-28T07:24:03.083Z,80.30
2022-10-28T07:28:06.245Z,80.10
2022-10-28T07:32:09.030Z,80.00
2022-10-28T07:36:12.160Z,79.70
2022-10-28T07:40:15.140Z,79.60
2022-10-28T07:44:17.849Z,79.60
2022-10-28T07:48:20.568Z,79.40
2022-10-28T07:52:23.503Z,79.50
2022-10-28T07:56:26.703Z,79.20
2022-10-28T08:00:29.451Z,79.10
2022-10-28T08:04:33.893Z,78.80
2022-10-28T08:08:37.672Z,78.40
2022-10-28T08:12:41.039Z,78.30
2022-10-28T08:16:43.780Z,78.10
2022-10-28T08:20:46.695Z,78.00
2022-10-28T08:24:49.577Z,77.70
2022-10-28T08:28:53.231Z,77.20
2022-10-28T08:32:56.474Z,76.60
2022-10-28T08:36:59.670Z,76.20
2022-10-28T08:41:25.370Z,76.10
2022-10-28T08:45:54.532Z,75.40
2022-10-28T08:50:03.662Z,75.00
2022-10-28T08:54:17.216Z,75.10
2022-10-28T08:58:25.479Z,73.90
2022-10-28T09:02:36.223Z,73.50
2022-10-28T09:06:39.009Z,73.40
2022-10-28T09:10:47.875Z,72.50
2022-10-28T09:14:53.429Z,71.80
2022-10-28T09:18:58.598Z,72.20
2022-10-28T09:23:17.388Z,71.60
2022-10-28T09:27:57.906Z,71.00
2022-10-28T09:32:13.750Z,70.40
2022-10-28T09:36:25.011Z,69.40
2022-10-28T09:40:31.089Z,68.50
2022-10-28T09:44:40.328Z,68.20
2022-10-28T09:48:55.798Z,67.40
2022-10-28T09:53:04.258Z,67.40
2022-10-28T09:57:07.352Z,66.60
2022-10-28T10:01:10.167Z,66.50
2022-10-28T10:05:16.986Z,66.60
2022-10-28T10:09:26.776Z,65.90
2022-10-28T10:13:35.261Z,64.90
2022-10-28T10:17:43.013Z,64.90
2022-10-28T10:21:54.307Z,64.50
2022-10-28T10:26:11.117Z,64.20
2022-10-28T10:30:22.274Z,63.80
2022-10-28T10:34:27.362Z,63.80
2022-10-28T10:38:31.434Z,62.60
2022-10-28T10:42:39.243Z,62.80
2022-10-28T10:46:55.573Z,62.40
2022-10-28T10:50:59.023Z,61.20
2022-10-28T10:55:06.937Z,61.20
2022-10-28T10:59:37.703Z,60.00
2022-10-28T11:04:14.113Z,60.00
2022-10-28T11:08:34.209Z,60.00
2022-10-28T11:12:37.517Z,59.70
2022-10-28T11:16:52.414Z,58.40
2022-10-28T11:21:01.038Z,58.40
2022-10-28T11:25:22.830Z,58.00
2022-10-28T11:29:25.856Z,57.80
2022-10-28T11:33:51.691Z,57.30
2022-10-28T11:38:12.549Z,56.30
2022-10-28T11:42:46.158Z,56.30
2022-10-28T11:47:02.435Z,56.10
2022-10-28T11:51:29.083Z,54.90
2022-10-28T11:56:02.388Z,56.00
2022-10-28T12:00:19.019Z,55.60
2022-10-28T12:04:56.744Z,54.40
2022-10-28T12:09:26.498Z,54.80
2022-10-28T12:13:49.054Z,53.50
2022-10-28T12:18:14.999Z,52.80
2022-10-28T12:22:41.205Z,52.60
2022-10-28T12:26:50.468Z,50.60
2022-10-28T12:30:55.014Z,48.90
2022-10-28T12:35:27.314Z,46.00
2022-10-28T12:40:08.910Z,47.50
2022-10-28T12:54:39.641Z,47.90
2022-10-28T12:59:44.873Z,45.20
2022-10-28T13:03:45.859Z,45.40
2022-10-28T13:07:59.869Z,45.10
2022-10-28T13:12:14.998Z,45.30
2022-10-28T13:17:03.196Z,44.60
2022-10-28T13:21:29.772Z,45.90
2022-10-28T13:26:09.407Z,45.10
2022-10-28T13:30:23.590Z,46.90
2022-10-28T13:34:37.695Z,45.50
2022-10-28T13:38:41.486Z,45.10
2022-10-28T13:42:49.182Z,45.10
2022-10-28T13:47:03.737Z,45.10
2022-10-28T13:51:09.713Z,45.20
2022-10-28T13:55:27.836Z,44.20
2022-10-28T13:59:38.684Z,44.60
2022-10-28T14:03:52.333Z,44.10
2022-10-28T14:07:58.697Z,44.00
2022-10-28T14:12:13.440Z,44.50
2022-10-28T14:16:27.799Z,46.90
2022-10-28T14:20:40.909Z,47.90
2022-10-28T14:24:45.954Z,46.50
2022-10-28T14:28:51.048Z,47.40
2022-10-28T14:33:00.678Z,46.50
2022-10-28T14:37:55.653Z,45.60
2022-10-28T14:42:09.373Z,47.10
2022-10-28T14:46:27.646Z,45.60
2022-10-28T14:50:51.727Z,46.80
2022-10-28T14:54:57.744Z,47.90
2022-10-28T14:59:36.239Z,48.40
2022-10-28T15:03:39.473Z,48.20
2022-10-28T15:07:43.315Z,48.50
2022-10-28T15:11:50.551Z,47.60
2022-10-28T15:15:59.329Z,48.10
2022-10-28T15:20:23.795Z,48.30
2022-10-28T15:24:29.273Z,48.80
2022-10-28T15:28:37.336Z,49.30
2022-10-28T15:33:14.667Z,49.80
2022-10-28T15:38:03.724Z,50.00
2022-10-28T15:42:29.198Z,50.10
2022-10-28T15:46:34.231Z,50.80
2022-10-28T15:50:37.110Z,50.40
2022-10-28T15:54:40.679Z,50.10
2022-10-28T15:58:49.565Z,50.90
2022-10-28T16:02:58.378Z,51.10
2022-10-28T16:07:08.422Z,52.70
2022-10-28T16:11:20.322Z,53.70
2022-10-28T16:15:23.506Z,54.30
2022-10-28T16:19:30.724Z,54.40
2022-10-28T16:23:45.886Z,54.30
2022-10-28T16:27:53.040Z,54.00
2022-10-28T16:31:59.400Z,54.40
2022-10-28T16:36:03.372Z,54.00
2022-10-28T16:40:24.905Z,54.00
2022-10-28T16:44:47.082Z,53.70
2022-10-28T16:48:50.182Z,52.80
2022-10-28T16:52:55.130Z,52.30
2022-10-28T16:56:59.426Z,52.20
2022-10-28T17:01:02.481Z,52.10
2022-10-28T17:05:07.459Z,52.40
2022-10-28T17:09:10.403Z,52.20
2022-10-28T17:13:14.830Z,52.20
2022-10-28T17:17:18.302Z,52.20
2022-10-28T17:21:21.207Z,52.50
2022-10-28T17:25:25.113Z,52.60
2022-10-28T17:29:28.030Z,52.90
2022-10-28T17:33:30.996Z,53.20
2022-10-28T17:37:34.147Z,53.20
2022-10-28T17:41:37.005Z,53.30
2022-10-28T17:45:40.571Z,53.30
2022-10-28T17:49:43.408Z,53.20
2022-10-28T17:53:46.903Z,53.20
2022-10-28T17:57:49.897Z,53.40
2022-10-28T18:01:54.407Z,53.30
2022-10-28T18:06:01.567Z,53.50
2022-10-28T18:10:04.651Z,53.40
2022-10-28T18:14:07.616Z,53.60
2022-10-28T18:18:10.470Z,53.30
2022-10-28T18:22:13.414Z,53.20
2022-10-28T18:26:16.889Z,53.20
2022-10-28T18:30:19.706Z,53.20
2022-10-28T18:34:23.873Z,53.50
2022-10-28T18:38:26.992Z,53.80
2022-10-28T18:42:29.873Z,53.90
2022-10-28T18:46:35.487Z,54.30
2022-10-28T18:50:38.297Z,54.50
2022-10-28T18:54:41.200Z,54.30
2022-10-28T18:58:44.827Z,53.70
2022-10-28T19:02:48.211Z,53.80
2022-10-28T19:06:51.409Z,53.70
2022-10-28T19:10:58.482Z,53.70
2022-10-28T19:15:01.383Z,54.10
2022-10-28T19:19:05.544Z,54.30
2022-10-28T19:23:08.973Z,54.70
2022-10-28T19:27:12.467Z,55.30
2022-10-28T19:31:18.982Z,55.80
2022-10-28T19:35:21.943Z,56.30
2022-10-28T19:39:25.282Z,56.70
2022-10-28T19:43:28.274Z,57.10
2022-10-28T19:47:36.757Z,57.40
2022-10-28T19:52:02.856Z,57.60
2022-10-28T20:00:35.729Z,59.40
2022-10-28T20:04:41.871Z,60.40
2022-10-28T20:08:46.703Z,60.60
2022-10-28T20:12:49.574Z,61.10
2022-10-28T20:16:52.707Z,61.00
2022-10-28T20:20:55.651Z,61.50
2022-10-28T20:24:58.659Z,61.90
2022-10-28T20:29:03.133Z,62.10
2022-10-28T20:33:06.908Z,62.70
2022-10-28T20:37:10.329Z,63.20
2022-10-28T20:41:16.149Z,63.80
2022-10-28T20:45:20.192Z,64.20
2022-10-28T20:49:23.338Z,64.80
2022-10-28T20:54:04.176Z,65.80
2022-10-28T20:58:11.174Z,65.20
2022-10-28T21:07:26.942Z,65.90
2022-10-28T21:16:10.866Z,66.00
2022-10-28T21:20:14.073Z,65.90
2022-10-28T21:24:18.425Z,66.20
2022-10-28T21:28:22.819Z,66.30
2022-10-28T21:32:26.505Z,66.40
2022-10-28T21:36:32.181Z,66.40
2022-10-28T21:40:35.314Z,66.10
2022-10-28T21:44:38.219Z,65.90
2022-10-28T21:48:41.483Z,66.30
2022-10-28T21:52:44.477Z,66.30
2022-10-28T21:56:49.794Z,66.60
2022-10-28T22:00:52.713Z,66.70
2022-10-28T22:04:55.826Z,66.70
2022-10-28T22:09:03.465Z,66.60
2022-10-28T22:13:06.349Z,66.60
2022-10-28T22:17:09.728Z,66.60
2022-10-28T22:21:21.760Z,66.80
2022-10-28T22:25:24.703Z,66.70
2022-10-28T22:29:28.050Z,66.60
2022-10-28T22:33:32.431Z,66.60
2022-10-28T22:37:35.630Z,66.60
2022-10-28T22:41:38.836Z,66.80
2022-10-28T22:45:42.629Z,67.00
2022-10-28T22:49:46.776Z,67.00
2022-10-28T22:53:50.818Z,66.80
2022-10-28T22:57:54.476Z,66.80
2022-10-28T23:01:57.896Z,67.00
2022-10-28T23:06:00.852Z,67.00
2022-10-28T23:10:04.016Z,66.70
2022-10-28T23:14:07.058Z,66.70
2022-10-28T23:18:13.085Z,67.30
2022-10-28T23:22:17.208Z,67.80
2022-10-28T23:26:20.234Z,68.00
2022-10-28T23:30:25.319Z,67.60
2022-10-28T23:34:28.367Z,67.20
2022-10-28T23:38:32.555Z,67.00
2022-10-28T23:42:35.604Z,66.80
2022-10-28T23:46:38.681Z,66.70
2022-10-28T23:50:42.610Z,66.80
2022-10-28T23:54:45.641Z,66.70
2022-10-28T23:58:48.881Z,66.70
